KDUJ/DUJ METAR and TAF weather

Enter ICAO airport designator
Station Type Date Time Source
KDUJ METAR 2020/01/20 12:53 UTC NOAA

KDUJ 201253Z AUTO 30007KT 10SM FEW013 M12/M14 A3029 RMK AO2 SLP293 T11221144


Station Type Date Time Source
KDUJ Decoded METAR 2020/01/20 12:53 UTC NOAA

DU BOIS-JEFFERSON COUNTY, PA, United States (KDUJ) 41-11N 078-53W
Jan 20, 2020 - 07:53 AM EST / 2020.01.20 1253 UTC
Wind: from the WNW (300 degrees) at 8 MPH (7 KT):0
Visibility: 10 mile(s):0
Sky conditions: mostly clear
Temperature: 10.0 F (-12.2 C)
Windchill: -2 F (-19 C):1
Dew Point: 6.1 F (-14.4 C)
Relative Humidity: 83%
Pressure (altimeter): 30.29 in. Hg (1025 hPa)
ob: KDUJ 201253Z AUTO 30007KT 10SM FEW013 M12/M14 A3029 RMK AO2 SLP293 T11221144
cycle: 13

Station Type Date Time Source
KDUJ TAF 2020/01/20 12:30 UTC NOAA

TAF KDUJ 201128Z 2012/2112 30007KT P6SM VCSH BKN025
FM201500 33007KT P6SM BKN035
FM210100 31005KT P6SM SCT040
FM210600 31005KT P6SM BKN015

Example: see airport list